Latest Weather Observations for Borroloola

IDD60801

Issued at 5:01 pm CST Sunday 11 December 2016 (issued every 30 minutes, with the page automatically refreshed every 10 minutes)

About weather observations | Map of weather stations | Latest weather observations for NT | Other Formats
Station Details ID: 014723 Name: BORROLOOLA AIRPORT Lat: -16.08 Lon: 136.30 Height: 16.1 m
Data from the previous 72 hours. | See also: Recent months at Borroloola
Date/Time
CST
Temp
°C
App
Temp
°C
Dew
Point
°C
Rel
Hum
%
Delta-T
°C
Wind Press
QNH
hPa
Press
MSL
hPa
Rain since
9am
mm
Dir  Spd
km/h
Gust
km/h
Spd
kts
Gust
kts
11/04:30pm 33.7 34.2 20.8 46 8.7 NE 19 30 10 16 1005.9 1005.8 0.2
11/04:00pm 34.5 34.7 20.5 44 9.4 NNE 20 30 11 16 1006.1 1006.0 0.2
11/03:30pm 33.7 34.0 20.8 46 8.7 N 20 28 11 15 1006.1 1006.0 0.2
11/03:00pm 32.3 32.9 20.2 48 8.1 NNE 17 26 9 14 1006.5 1006.4 0.2
11/02:30pm 31.4 32.0 21.0 54 7.0 NE 19 30 10 16 1007.0 1006.9 0.2
11/02:00pm 31.2 32.6 22.5 60 5.9 NE 19 28 10 15 1007.5 1007.4 0.2
11/01:30pm 30.2 31.7 24.4 71 4.1 NNE 24 35 13 19 1008.0 1007.9 0.2
11/01:00pm 27.2 27.3 23.2 79 2.7 ENE 28 46 15 25 1008.5 1008.4 0.0
11/12:47pm 29.4 27.3 21.6 63 5.2 ENE 35 54 19 29 1007.9 1007.8 0.0
11/12:30pm 31.8 29.7 19.8 49 7.9 ENE 30 46 16 25 1007.8 1007.7 0.0
11/12:26pm 32.5 32.1 20.1 48 8.2 NE 22 46 12 25 1007.7 1007.6 0.0
11/12:00pm 35.9 37.1 20.6 41 10.3 NNE 15 22 8 12 1008.0 1007.9 0.0
11/11:30am 35.2 36.0 19.1 38 10.6 ESE 13 20 7 11 1008.4 1008.3 0.0
11/11:00am 35.5 36.1 18.6 37 11.1 E 13 20 7 11 1008.8 1008.7 0.0
11/10:30am 36.3 37.8 19.7 37 11.1 NNE 11 24 6 13 1009.1 1009.0 0.0
11/10:00am 33.3 35.9 20.5 47 8.6 NNE 7 13 4 7 1009.4 1009.3 0.0
11/09:30am 33.3 36.1 20.8 48 8.4 NE 7 15 4 8 1009.7 1009.6 0.0
11/09:00am 33.7 37.3 21.2 48 8.5 E 4 11 2 6 1009.7 1009.6 0.0
11/08:30am 32.2 35.1 21.1 52 7.5 NE 7 11 4 6 1009.4 1009.3 0.0
11/08:00am 31.9 35.5 22.0 55 6.7 NW 6 9 3 5 1009.2 1009.1 0.0
11/07:30am 30.8 34.8 22.7 62 5.5 ENE 6 9 3 5 1009.3 1009.2 0.0
11/07:00am 29.5 34.0 22.2 65 4.9 SE 2 6 1 3 1009.1 1009.0 0.0
11/06:30am 28.5 31.8 21.5 66 4.7 SSE 6 9 3 5 1008.9 1008.8 0.0
11/06:00am 27.4 31.2 20.2 65 4.7 CALM 0 0 0 0 1008.5 1008.4 0.0
11/05:30am 27.6 32.0 21.4 69 4.1 CALM 0 0 0 0 1007.9 1007.8 0.0
11/05:00am 28.0 32.7 22.0 70 4.0 CALM 0 0 0 0 1007.6 1007.5 0.0
11/04:30am 28.5 33.0 21.5 66 4.7 CALM 0 0 0 0 1007.5 1007.4 0.0
11/04:00am 28.7 33.2 22.2 68 4.4 N 2 6 1 3 1007.4 1007.3 0.0
11/03:30am 28.8 32.5 22.3 68 4.4 N 6 7 3 4 1007.3 1007.2 0.0
11/03:00am 29.0 33.6 21.7 64 4.9 CALM 0 0 0 0 1007.4 1007.3 0.0
11/02:30am 29.0 32.3 21.5 64 5.0 E 6 7 3 4 1007.3 1007.2 0.0
11/02:00am 29.3 33.0 21.5 63 5.2 ESE 4 7 2 4 1007.2 1007.1 0.0
11/01:30am 29.4 33.8 22.1 65 4.9 E 2 9 1 5 1007.6 1007.5 0.0
11/01:00am 29.4 34.1 21.9 64 5.1 CALM 0 0 0 0 1008.0 1007.9 0.0
11/12:30am 29.5 34.2 22.0 64 5.1 CALM 0 0 0 0 1008.2 1008.1 0.0
11/12:00am 29.8 34.7 22.3 64 5.1 CALM 0 6 0 3 1008.5 1008.4 0.0
 
Date/Time
CST
Temp
°C
App
Temp
°C
Dew
Point
°C
Rel
Hum
%
Delta-T
°C
Wind Press
QNH
hPa
Press
MSL
hPa
Rain since
9am
mm
Dir  Spd
km/h
Gust
km/h
Spd
kts
Gust
kts
10/11:30pm 29.9 33.4 22.1 63 5.3 NE 7 9 4 5 1009.0 1008.9 0.0
10/11:00pm 30.7 34.0 21.8 59 6.0 NE 7 9 4 5 1009.3 1009.2 0.0
10/10:30pm 30.9 34.2 21.4 57 6.4 NE 6 7 3 4 1009.3 1009.2 0.0
10/10:00pm 31.0 33.8 21.5 57 6.4 NNE 9 15 5 8 1009.2 1009.1 0.0
10/09:30pm 31.2 34.2 21.9 57 6.3 NNE 9 15 5 8 1008.9 1008.8 0.0
10/09:00pm 31.8 34.3 21.0 52 7.3 NE 9 13 5 7 1008.4 1008.3 0.0
10/08:30pm 32.1 33.8 21.0 52 7.5 ENE 13 22 7 12 1008.2 1008.1 0.0
10/08:00pm 32.9 34.7 20.4 47 8.3 NE 11 17 6 9 1007.7 1007.6 0.0
10/07:30pm 33.4 35.5 20.2 46 8.8 NE 9 15 5 8 1007.5 1007.4 0.0
10/07:00pm 33.7 34.8 19.7 43 9.3 ENE 13 17 7 9 1007.1 1007.0 0.0
10/06:30pm 34.4 34.5 18.4 38 10.5 NE 15 19 8 10 1006.9 1006.8 0.0
10/06:00pm 34.7 34.6 18.7 38 10.5 ENE 17 22 9 12 1006.6 1006.5 0.0
10/05:30pm 35.2 36.0 19.1 38 10.6 E 13 20 7 11 1006.3 1006.2 0.0
10/05:00pm 35.9 36.2 18.0 34 11.7 ESE 13 19 7 10 1006.3 1006.2 0.0
10/04:30pm 35.7 36.0 17.9 35 11.6 NE 13 19 7 10 1006.1 1006.0 0.0
10/04:00pm 35.3 35.2 18.8 37 10.8 ENE 17 24 9 13 1006.5 1006.4 0.0
10/03:30pm 35.3 35.2 18.8 37 10.9 NE 17 24 9 13 1006.5 1006.4 0.0
10/03:00pm 35.1 33.8 18.2 36 11.0 NE 22 30 12 16 1006.7 1006.6 0.0
10/02:30pm 36.1 34.2 16.8 32 12.4 ENE 22 33 12 18 1006.8 1006.7 0.0
10/02:00pm 37.3 35.6 15.7 27 13.7 ENE 19 26 10 14 1006.9 1006.8 0.0
10/01:30pm 37.9 37.3 14.5 25 14.6 NE 11 20 6 11 1007.2 1007.1 0.0
10/01:00pm 37.6 37.2 14.2 25 14.5 NNE 9 30 5 16 1007.6 1007.5 0.0
10/12:30pm 37.6 36.7 13.6 24 14.8 ENE 11 20 6 11 1008.1 1008.0 0.0
10/12:00pm 38.4 36.1 12.9 22 15.6 SE 17 35 9 19 1008.5 1008.4 0.0
10/11:30am 38.0 35.4 13.3 23 15.2 ESE 19 28 10 15 1009.2 1009.1 0.0
10/11:00am 37.3 34.7 13.3 23 14.7 ESE 19 28 10 15 1009.7 1009.6 0.0
10/10:30am 36.7 35.0 13.5 25 14.2 ESE 15 24 8 13 1010.0 1009.9 0.0
10/10:00am 36.5 33.7 13.3 25 14.2 SE 20 32 11 17 1010.3 1010.2 0.0
10/09:30am 36.1 33.4 13.0 25 14.0 SE 19 30 10 16 1010.5 1010.4 0.0
10/09:00am 35.1 32.7 12.7 26 13.5 SSE 17 24 9 13 1010.5 1010.4 0.0
10/08:30am 33.0 30.0 12.1 28 12.4 SSE 19 24 10 13 1010.7 1010.6 0.0
10/08:00am 31.9 29.5 12.7 31 11.4 SSE 17 22 9 12 1010.5 1010.4 0.0
10/07:30am 30.9 28.5 12.8 33 10.8 S 17 22 9 12 1010.3 1010.2 0.0
10/07:00am 29.9 28.9 15.6 42 8.8 SSW 15 20 8 11 1010.1 1010.0 0.0
10/06:30am 28.4 30.4 19.1 57 6.0 SSW 7 11 4 6 1009.9 1009.8 0.0
10/06:00am 27.4 28.8 18.7 59 5.6 SSW 9 11 5 6 1009.5 1009.4 0.0
10/05:30am 27.5 29.0 19.0 59 5.5 SSW 9 11 5 6 1009.2 1009.1 0.0
10/05:00am 27.7 29.5 19.5 61 5.3 SSW 9 11 5 6 1008.8 1008.7 0.0
10/04:30am 27.4 29.2 19.5 62 5.1 S 9 9 5 5 1008.4 1008.3 0.0
10/04:00am 27.5 29.3 19.6 62 5.1 SW 9 9 5 5 1008.0 1007.9 0.0
10/03:30am 27.2 30.2 18.5 59 5.6 CALM 0 7 0 4 1007.7 1007.6 0.0
10/03:00am 27.7 30.6 19.0 59 5.6 ENE 2 7 1 4 1007.9 1007.8 0.0
10/02:30am 28.1 31.8 19.9 61 5.4 CALM 0 0 0 0 1008.0 1007.9 0.0
10/02:00am 28.3 31.3 20.8 63 5.0 NNW 6 7 3 4 1008.1 1008.0 0.0
10/01:30am 28.6 32.2 19.8 59 5.8 CALM 0 0 0 0 1008.4 1008.3 0.0
10/01:00am 29.0 32.7 19.9 58 6.0 CALM 0 0 0 0 1008.6 1008.5 0.0
10/12:30am 29.3 33.0 19.9 57 6.2 CALM 0 0 0 0 1008.9 1008.8 0.0
10/12:00am 29.6 33.4 20.2 57 6.2 CALM 0 0 0 0 1009.1 1009.0 0.0
 
Date/Time
CST
Temp
°C
App
Temp
°C
Dew
Point
°C
Rel
Hum
%
Delta-T
°C
Wind Press
QNH
hPa
Press
MSL
hPa
Rain since
9am
mm
Dir  Spd
km/h
Gust
km/h
Spd
kts
Gust
kts
09/11:30pm 30.4 34.6 20.9 57 6.3 CALM 0 0 0 0 1009.4 1009.3 0.0
09/11:00pm 30.6 34.7 20.8 56 6.5 CALM 0 0 0 0 1009.6 1009.5 0.0
09/10:30pm 30.9 34.5 20.5 54 6.9 WSW 2 7 1 4 1009.4 1009.3 0.0
09/10:00pm 31.0 33.8 19.7 51 7.4 N 4 9 2 5 1008.9 1008.8 0.0
09/09:30pm 31.0 34.6 19.7 51 7.4 CALM 0 0 0 0 1009.0 1008.9 0.0
09/09:00pm 31.2 34.5 19.2 48 7.8 CALM 0 6 0 3 1008.7 1008.6 0.0
09/08:30pm 31.2 32.1 19.2 48 7.8 NNE 13 17 7 9 1007.8 1007.7 0.0
09/08:00pm 31.7 33.8 19.3 47 8.1 - 7 19 4 10 1007.7 1007.6 0.0
09/07:30pm 32.3 32.2 19.5 46 8.4 N 19 24 10 13 1007.0 1006.9 0.0
09/07:00pm 33.1 33.0 19.9 45 8.7 NNE 20 28 11 15 1006.5 1006.4 0.0
09/06:30pm 34.2 34.0 19.8 42 9.6 N 20 28 11 15 1005.8 1005.7 0.0
09/06:00pm 35.7 35.2 20.0 39 10.5 NNE 22 32 12 17 1005.5 1005.4 0.0
09/05:30pm 36.7 36.7 20.1 38 11.2 N 20 28 11 15 1005.1 1005.0 0.0
09/05:00pm 37.5 37.5 19.0 34 12.3 NNE 17 24 9 13 1005.2 1005.1 0.0
09/04:30pm 38.1 37.7 19.0 32 12.7 NNE 19 28 10 15 1005.0 1004.9 0.0
09/04:00pm 38.5 37.9 18.4 31 13.3 NE 19 28 10 15 1005.2 1005.1 0.0
09/03:30pm 39.4 39.2 17.5 27 14.3 NNE 15 28 8 15 1005.3 1005.2 0.0
09/03:00pm 38.8 38.0 17.0 27 14.2 NE 17 26 9 14 1005.5 1005.4 0.0
09/02:30pm 39.0 38.2 16.0 26 14.7 NE 15 26 8 14 1005.8 1005.7 0.0
09/02:00pm 38.5 39.1 16.7 27 14.1 N 9 22 5 12 1006.1 1006.0 0.0
09/01:30pm 38.3 36.7 16.6 28 14.0 N 20 32 11 17 1006.5 1006.4 0.0
09/01:00pm 37.8 37.6 16.7 29 13.6 ENE 13 20 7 11 1007.1 1007.0 0.0
09/12:30pm 37.7 38.2 16.6 28 13.6 NNE 9 15 5 8 1007.7 1007.6 0.0
09/12:00pm 36.7 36.0 16.3 30 13.0 N 15 22 8 12 1008.1 1008.0 0.0
09/11:30am 36.2 35.7 15.9 30 12.9 NNE 13 20 7 11 1008.7 1008.6 0.0
09/11:00am 35.5 35.7 15.8 31 12.4 ENE 9 15 5 8 1009.1 1009.0 0.0
09/10:30am 34.3 34.3 15.2 31 11.9 NE 9 15 5 8 1009.6 1009.5 0.0
09/10:00am 34.6 34.3 15.5 32 12.0 E 11 22 6 12 1009.9 1009.8 0.0
09/09:30am 33.8 34.5 17.1 37 10.7 ESE 9 17 5 9 1010.0 1009.9 0.0
09/09:00am 32.7 32.9 17.7 40 9.6 SSE 13 20 7 11 1010.3 1010.2 0.0
09/08:30am 32.0 33.4 20.3 50 7.8 SW 13 20 7 11 1009.9 1009.8 0.0
09/08:00am 30.7 32.3 21.5 58 6.2 SSW 15 20 8 11 1010.0 1009.9 0.0
09/07:30am 29.4 32.0 21.9 64 5.1 SSW 11 17 6 9 1009.9 1009.8 0.0
09/07:00am 27.9 31.1 21.7 69 4.2 SW 7 9 4 5 1009.7 1009.6 0.0
09/06:30am 26.2 30.7 21.6 76 3.1 CALM 0 0 0 0 1009.4 1009.3 0.0
09/06:00am 24.8 29.1 21.1 80 2.4 CALM 0 2 0 1 1009.0 1008.9 0.0
09/05:30am 24.3 26.7 20.8 81 2.3 N 9 11 5 6 1008.6 1008.5 0.0
09/05:00am 24.5 28.4 20.4 78 2.7 CALM 0 2 0 1 1008.6 1008.5 0.0
09/04:30am 25.2 28.2 20.9 77 2.8 S 6 9 3 5 1008.4 1008.3 0.0
09/04:00am 25.2 28.5 20.7 76 2.9 ESE 4 7 2 4 1007.9 1007.8 0.0
09/03:30am 25.9 28.2 21.3 76 3.1 S 11 15 6 8 1007.7 1007.6 0.0
09/03:00am 25.2 27.5 19.8 72 3.5 SSE 7 9 4 5 1007.1 1007.0 0.0
09/02:30am 25.5 29.3 20.1 72 3.5 CALM 0 0 0 0 1006.8 1006.7 0.0
09/02:00am 25.8 29.4 19.7 69 3.9 CALM 0 0 0 0 1007.1 1007.0 0.0
09/01:30am 26.3 30.3 20.6 71 3.7 CALM 0 0 0 0 1007.0 1006.9 0.0
09/01:00am 26.9 31.3 21.4 72 3.7 CALM 0 0 0 0 1007.1 1007.0 0.0
09/12:30am 27.3 31.3 21.3 69 4.0 ENE 2 6 1 3 1007.4 1007.3 0.0
09/12:00am 27.6 30.9 21.4 69 4.1 ENE 6 7 3 4 1007.7 1007.6 0.0
 
Date/Time
CST
Temp
°C
App
Temp
°C
Dew
Point
°C
Rel
Hum
%
Delta-T
°C
Wind Press
QNH
hPa
Press
MSL
hPa
Rain since
9am
mm
Dir  Spd
km/h
Gust
km/h
Spd
kts
Gust
kts
08/11:30pm 27.9 32.2 21.2 67 4.5 CALM 0 4 0 2 1008.0 1007.9 0.0
08/11:00pm 28.3 31.3 21.3 65 4.7 NNE 7 11 4 6 1008.1 1008.0 0.0
08/10:30pm 28.8 31.6 21.6 65 4.8 NNE 9 15 5 8 1008.0 1007.9 0.0
08/10:00pm 29.0 30.7 21.0 62 5.3 N 13 20 7 11 1007.8 1007.7 0.0
08/09:30pm 29.1 31.3 21.1 62 5.3 NNE 11 19 6 10 1007.6 1007.5 0.0
08/09:00pm 29.6 31.0 21.0 60 5.7 N 15 20 8 11 1007.3 1007.2 0.0
08/08:30pm 30.1 31.0 20.1 55 6.6 N 15 22 8 12 1007.0 1006.9 0.0
08/08:00pm 30.8 30.7 18.8 48 7.8 N 17 20 9 11 1006.8 1006.7 0.0
08/07:30pm 31.6 30.9 18.2 44 8.7 N 19 22 10 12 1006.4 1006.3 0.0
08/07:00pm 32.5 31.7 17.9 41 9.4 N 19 24 10 13 1006.1 1006.0 0.0
08/06:30pm 33.4 32.6 17.1 37 10.4 NNE 17 24 9 13 1005.8 1005.7 0.0
08/06:00pm 34.5 33.2 16.8 34 11.3 NNE 19 28 10 15 1005.2 1005.1 0.0
08/05:30pm 35.7 34.1 16.4 31 12.3 N 20 28 11 15 1004.8 1004.7 0.0

Other Formats:

Comma delimited format used in spreadsheet applications
http://www.bom.gov.au/fwo/IDD60801/IDD60801.94152.axf

JavaScript Object Notation format (JSON) in row-major order
http://www.bom.gov.au/fwo/IDD60801/IDD60801.94152.json